.
WxDataArchive / Data Records for 2007-06-23
2007-06-22 June 2007 2007-06-24

Data Records for Saturday, 23 June 2007

Time	Temp	Chill	HIndex	Humid	Dewpt	 Wind 	HiWind	WindDir	Rain 	Barom 
-----	----	-----	------	-----	-----	------	------	-------	-----	----- 
00:00	62.4	62.4	62.4	62	49.2	0	1	112	0.00	29.964 
00:05	62.6	62.6	62.6	61	49.0	0	2	112	0.00	29.962 
00:10	62.6	62.6	62.6	61	49.0	0	1	112	0.00	29.963 
00:15	62.4	62.4	62.4	61	48.8	0	1	112	0.00	29.962 
00:20	62.4	62.4	62.4	61	48.8	0	1	112	0.00	29.962 
00:25	62.3	62.3	62.3	62	49.1	0	1	112	0.00	29.957 
00:30	62.1	62.1	62.1	61	48.5	1	2	112	0.00	29.954 
00:35	62.1	62.1	62.1	62	48.9	0	2	90	0.00	29.955 
00:40	62.0	62.0	62.0	62	48.8	0	1	90	0.00	29.950 
00:45	61.8	61.8	61.8	63	49.1	0	2	90	0.00	29.952 
00:50	61.6	61.6	61.6	64	49.3	0	1	90	0.00	29.950 
00:55	61.3	61.3	61.3	64	49.0	0	0	---	0.00	29.950 
01:00	60.9	60.9	60.9	64	48.6	0	0	---	0.00	29.948 
01:05	60.5	60.5	60.5	65	48.7	0	0	---	0.00	29.945 
01:10	59.9	59.9	59.9	66	48.5	0	0	---	0.00	29.948 
01:15	59.5	59.5	59.5	67	48.5	0	0	---	0.00	29.948 
01:20	59.2	59.2	59.2	68	48.6	0	0	---	0.00	29.948 
01:25	58.7	58.7	58.7	69	48.6	0	0	---	0.00	29.947 
01:30	58.4	58.4	58.4	70	48.7	0	0	---	0.00	29.950 
01:35	58.0	58.0	58.0	72	49.0	0	0	---	0.00	29.950 
01:40	57.6	57.6	57.6	72	48.6	0	0	---	0.00	29.949 
01:45	57.3	57.3	57.3	73	48.7	0	0	---	0.00	29.948 
01:50	57.2	57.2	57.2	74	49.0	0	0	---	0.00	29.948 
01:55	56.9	56.9	56.9	76	49.4	0	0	---	0.00	29.949 
02:00	56.9	56.9	56.9	77	49.8	0	0	---	0.00	29.950 
02:05	56.9	56.9	56.9	77	49.8	0	0	---	0.00	29.950 
02:10	56.7	56.7	56.7	78	49.9	0	0	---	0.00	29.949 
02:15	56.6	56.6	56.6	78	49.8	0	0	---	0.00	29.949 
02:20	56.6	56.6	56.6	77	49.5	0	0	---	0.00	29.949 
02:25	56.5	56.5	56.5	77	49.4	0	0	---	0.00	29.950 
02:30	56.3	56.3	56.3	77	49.2	0	0	---	0.00	29.950 
02:35	56.3	56.3	56.3	77	49.2	0	0	---	0.00	29.950 
02:40	56.3	56.3	56.3	76	48.8	0	0	---	0.00	29.951 
02:45	56.3	56.3	56.3	75	48.5	0	0	---	0.00	29.952 
02:50	56.3	56.3	56.3	74	48.1	0	0	---	0.00	29.951 
02:55	56.3	56.3	56.3	74	48.1	0	0	---	0.00	29.951 
03:00	56.3	56.3	56.3	74	48.1	0	0	---	0.00	29.951 
03:05	56.2	56.2	56.2	75	48.4	0	0	---	0.00	29.951 
03:10	56.0	56.0	56.0	75	48.2	0	0	---	0.00	29.952 
03:15	55.9	55.9	55.9	76	48.4	0	0	---	0.00	29.951 
03:20	55.9	55.9	55.9	77	48.8	0	0	---	0.00	29.951 
03:25	55.9	55.9	55.9	77	48.8	0	1	90	0.00	29.951 
03:30	55.9	55.9	55.9	77	48.8	0	0	---	0.00	29.952 
03:35	56.0	56.0	56.0	77	48.9	0	1	90	0.00	29.951 
03:40	56.2	56.2	56.2	77	49.1	0	1	90	0.00	29.951 
03:45	56.5	56.5	56.5	75	48.7	0	2	90	0.00	29.949 
03:50	57.0	57.0	57.0	74	48.8	0	1	90	0.00	29.948 
03:55	57.3	57.3	57.3	73	48.7	0	2	90	0.00	29.948 
04:00	57.8	57.8	57.8	71	48.5	1	2	90	0.00	29.948 
04:05	58.1	58.1	58.1	71	48.7	0	2	90	0.00	29.950 
04:10	58.3	58.3	58.3	70	48.6	0	1	90	0.00	29.951 
04:15	58.4	58.4	58.4	70	48.7	1	3	90	0.00	29.953 
04:20	58.6	58.6	58.6	70	48.8	1	3	90	0.00	29.956 
04:25	58.6	58.6	58.6	69	48.5	0	2	90	0.00	29.962 
04:30	58.6	58.6	58.6	70	48.8	0	2	90	0.00	29.966 
04:35	58.6	58.6	58.6	70	48.8	0	1	90	0.00	29.969 
04:40	58.4	58.4	58.4	69	48.3	0	0	---	0.00	29.976 
04:45	58.4	58.4	58.4	70	48.7	0	0	---	0.00	29.981 
04:50	58.3	58.3	58.3	71	48.9	0	0	---	0.00	29.984 
04:55	58.3	58.3	58.3	71	48.9	0	0	---	0.00	29.987 
05:00	58.3	58.3	58.3	71	48.9	0	0	---	0.00	29.987 
05:05	58.3	58.3	58.3	71	48.9	0	0	---	0.00	29.987 
05:10	58.3	58.3	58.3	72	49.3	0	0	---	0.00	29.987 
05:15	58.3	58.3	58.3	73	49.7	0	0	---	0.00	29.986 
05:20	58.3	58.3	58.3	72	49.3	0	0	---	0.00	29.986 
05:25	58.4	58.4	58.4	72	49.4	0	1	90	0.00	29.985 
05:30	58.6	58.6	58.6	71	49.2	0	1	90	0.00	29.983 
05:35	58.9	58.9	58.9	70	49.1	0	1	90	0.00	29.982 
05:40	59.0	59.0	59.0	67	48.1	0	2	90	0.00	29.983 
05:45	59.3	59.3	59.3	66	47.9	0	1	90	0.00	29.984 
05:50	59.5	59.5	59.5	68	48.9	0	1	90	0.00	29.985 
05:55	59.5	59.5	59.5	67	48.5	1	3	90	0.00	29.988 
06:00	59.3	59.3	59.3	67	48.3	0	1	90	0.00	29.991 
06:05	59.3	59.3	59.3	70	49.5	0	2	90	0.00	29.996 
06:10	59.3	59.3	59.3	70	49.5	0	0	---	0.00	29.999 
06:15	59.2	59.2	59.2	71	49.8	0	0	---	0.00	29.999 
06:20	59.0	59.0	59.0	71	49.6	0	1	90	0.00	29.999 
06:25	59.0	59.0	59.0	71	49.6	0	1	90	0.00	29.998 
06:30	59.2	59.2	59.2	73	50.5	0	1	90	0.00	29.995 
06:35	59.0	59.0	59.0	73	50.4	0	2	90	0.00	29.993 
06:40	59.2	59.2	59.2	74	50.9	0	2	90	0.00	29.991 
06:45	59.2	59.2	59.2	73	50.5	0	2	90	0.00	29.989 
06:50	59.5	59.5	59.5	71	50.1	1	2	90	0.00	29.986 
06:55	59.8	59.8	59.8	69	49.6	1	2	90	0.00	29.987 
07:00	60.1	60.1	60.1	67	49.1	1	2	90	0.00	29.991 
07:05	60.4	60.4	60.4	68	49.8	1	3	90	0.00	29.995 
07:10	60.4	60.4	60.4	69	50.2	1	3	90	0.00	29.993 
07:15	60.5	60.5	60.5	69	50.3	0	2	90	0.00	29.994 
07:20	60.5	60.5	60.5	68	49.9	0	1	90	0.00	29.995 
07:25	60.5	60.5	60.5	67	49.5	1	2	90	0.00	29.994 
07:30	60.7	60.7	60.7	65	48.9	1	4	90	0.00	29.990 
07:35	60.7	60.7	60.7	65	48.9	1	3	90	0.00	29.989 
07:40	60.9	60.9	60.9	66	49.5	1	3	90	0.00	29.988 
07:45	60.9	60.9	60.9	65	49.1	1	3	90	0.00	29.986 
07:50	61.0	61.0	61.0	65	49.1	0	2	90	0.00	29.985 
07:55	61.2	61.2	61.2	65	49.3	1	3	90	0.00	29.986 
08:00	61.3	61.3	61.3	65	49.4	1	3	90	0.00	29.986 
08:05	61.5	61.5	61.5	64	49.2	1	4	90	0.00	29.989 
08:10	61.6	61.6	61.6	65	49.7	1	3	90	0.00	29.989 
08:15	61.8	61.8	61.8	64	49.5	1	3	90	0.00	29.988 
08:20	62.0	62.0	62.0	64	49.7	1	4	90	0.00	29.987 
08:25	62.0	62.0	62.0	65	50.1	1	4	68	0.00	29.984 
08:30	62.1	62.1	62.1	63	49.3	1	2	68	0.00	29.980 
08:35	62.3	62.3	62.3	64	50.0	1	4	90	0.00	29.979 
08:40	62.4	62.4	62.4	63	49.6	1	3	90	0.00	29.977 
08:45	62.4	62.4	62.4	63	49.6	2	4	112	0.00	29.977 
08:50	62.6	62.6	62.6	62	49.4	1	3	90	0.00	29.977 
08:55	62.6	62.6	62.6	61	49.0	2	4	90	0.00	29.981 
09:00	62.7	62.7	62.7	62	49.5	1	2	90	0.00	29.986 
09:05	62.9	62.9	62.9	62	49.7	1	3	112	0.00	29.989 
09:10	63.1	63.1	63.1	63	50.3	0	1	90	0.00	29.994 
09:15	63.1	63.1	63.1	64	50.7	0	3	90	0.00	30.001 
09:20	63.2	63.2	63.2	65	51.2	0	1	338	0.00	30.005 
09:25	63.2	63.2	63.2	67	52.1	0	2	248	0.00	30.007 
09:30	63.2	63.2	63.2	65	51.2	0	1	248	0.00	30.008 
09:35	63.4	63.4	63.4	65	51.4	0	1	248	0.00	30.008 
09:40	63.5	63.5	63.5	65	51.5	0	2	248	0.00	30.007 
09:45	63.7	63.7	63.7	66	52.1	0	2	225	0.00	30.006 
09:50	64.0	64.0	64.0	64	51.6	1	2	225	0.00	30.007 
09:55	64.3	64.3	64.3	63	51.4	1	3	90	0.00	30.006 
10:00	64.7	64.7	64.7	61	50.9	1	4	90	0.00	30.004 
10:05	65.0	65.0	65.0	62	51.7	0	3	90	0.00	30.003 
10:10	65.3	65.3	65.3	58	50.1	1	6	90	0.00	30.002 
10:15	65.8	65.8	65.8	58	50.6	1	4	68	0.00	30.000 
10:20	66.0	66.0	66.0	57	50.3	2	4	90	0.00	29.998 
10:25	66.3	66.3	66.3	57	50.6	1	4	90	0.00	29.993 
10:30	66.6	66.6	66.6	56	50.4	2	5	112	0.00	29.994 
10:35	66.9	66.9	66.9	55	50.2	2	5	90	0.00	29.990 
10:40	67.1	67.1	67.1	54	49.9	2	6	90	0.00	29.992 
10:45	67.4	67.4	67.4	54	50.2	1	3	112	0.00	29.993 
10:50	67.6	67.6	67.6	53	49.9	1	4	112	0.00	29.993 
10:55	67.9	67.9	67.9	54	50.6	1	2	112	0.00	29.992 
11:00	68.1	68.1	68.1	52	49.8	2	5	112	0.00	29.991 
11:05	68.3	68.3	68.3	54	51.0	1	4	112	0.00	29.990 
11:10	68.4	68.4	68.4	53	50.6	1	3	90	0.00	29.988 
11:15	68.6	68.6	68.6	51	49.7	2	5	112	0.00	29.987 
11:20	68.6	68.6	68.6	52	50.3	2	5	112	0.00	29.986 
11:25	68.9	68.9	68.9	50	49.5	2	6	90	0.00	29.986 
11:30	69.1	69.1	69.1	50	49.7	1	4	90	0.00	29.986 
11:35	69.4	69.4	69.4	51	50.5	1	7	112	0.00	29.985 
11:40	69.8	69.8	69.8	47	48.6	2	6	112	0.00	29.983 
11:45	69.9	69.9	69.9	49	49.9	2	5	90	0.00	29.982 
11:50	70.3	70.3	70.3	48	49.7	2	5	68	0.00	29.982 
11:55	70.3	70.3	70.3	47	49.1	2	4	90	0.00	29.981 
12:00	70.4	70.4	70.4	47	49.2	1	3	90	0.00	29.981 
12:05	70.6	70.6	70.6	48	49.9	1	4	90	0.00	29.982 
12:10	70.8	70.8	70.8	47	49.6	1	3	90	0.00	29.978 
12:15	70.8	70.8	70.8	46	49.0	2	5	112	0.00	29.975 
12:20	70.8	70.8	70.8	45	48.4	2	6	90	0.00	29.974 
12:25	70.4	70.4	70.4	45	48.0	2	7	112	0.00	29.973 
12:30	70.3	70.3	70.3	46	48.5	2	5	112	0.00	29.972 
12:35	70.1	70.1	70.1	48	49.5	2	5	90	0.00	29.971 
12:40	69.9	69.9	69.9	46	48.2	1	3	90	0.00	29.970 
12:45	70.1	70.1	70.1	46	48.3	2	4	90	0.00	29.969 
12:50	70.3	70.3	70.3	46	48.5	2	5	112	0.00	29.966 
12:55	70.3	70.3	70.3	47	49.1	1	4	112	0.00	29.964 
13:00	70.4	70.4	70.4	46	48.6	2	4	112	0.00	29.960 
13:05	70.6	70.6	70.6	45	48.2	2	4	112	0.00	29.960 
13:10	70.8	70.8	70.8	46	49.0	3	5	90	0.00	29.959 
13:15	70.9	70.9	70.9	45	48.5	2	3	90	0.00	29.957 
13:20	71.1	71.1	71.1	44	48.1	3	6	90	0.00	29.957 
13:25	71.3	71.3	71.3	44	48.2	2	5	112	0.00	29.957 
13:30	71.5	71.5	71.5	45	49.0	2	3	90	0.00	29.957 
13:35	71.8	71.8	71.8	45	49.3	1	4	90	0.00	29.957 
13:40	71.8	71.8	71.8	44	48.7	2	6	90	0.00	29.956 
13:45	71.6	71.6	71.6	44	48.5	2	5	90	0.00	29.956 
13:50	71.6	71.6	71.6	44	48.5	2	5	90	0.00	29.955 
13:55	71.5	71.5	71.5	44	48.4	2	5	90	0.00	29.954 
14:00	71.5	71.5	71.5	44	48.4	2	5	90	0.00	29.954 
14:05	71.3	71.3	71.3	46	49.4	2	5	112	0.00	29.951 
14:10	71.3	71.3	71.3	46	49.4	2	5	90	0.00	29.950 
14:15	71.1	71.1	71.1	46	49.3	2	5	90	0.00	29.947 
14:20	71.3	71.3	71.3	47	50.0	1	3	112	0.00	29.947 
14:25	71.1	71.1	71.1	47	49.8	2	7	90	0.00	29.947 
14:30	70.9	70.9	70.9	48	50.2	2	6	90	0.00	29.946 
14:35	71.1	71.1	71.1	48	50.4	1	3	135	0.00	29.944 
14:40	71.1	71.1	71.1	50	51.5	1	3	90	0.00	29.943 
14:45	71.1	71.1	71.1	52	52.6	1	2	90	0.00	29.943 
14:50	71.1	71.1	71.1	53	53.1	1	4	112	0.00	29.942 
14:55	70.8	70.8	70.8	51	51.8	2	6	68	0.00	29.941 
15:00	70.4	70.4	70.4	52	51.9	2	7	90	0.00	29.940 
15:05	70.3	70.3	70.3	53	52.3	1	4	90	0.00	29.939 
15:10	70.1	70.1	70.1	54	52.7	1	2	90	0.00	29.937 
15:15	69.9	69.9	69.9	54	52.5	1	3	90	0.00	29.936 
15:20	69.9	69.9	69.9	56	53.5	1	3	90	0.00	29.934 
15:25	69.9	69.9	69.9	57	54.0	1	3	90	0.00	29.931 
15:30	69.9	69.9	69.9	57	54.0	0	2	90	0.00	29.929 
15:35	69.9	69.9	69.9	57	54.0	0	3	90	0.00	29.927 
15:40	69.9	69.9	69.9	56	53.5	0	2	90	0.00	29.926 
15:45	69.9	69.9	69.9	58	54.4	0	2	90	0.00	29.925 
15:50	70.1	70.1	70.1	56	53.7	1	2	248	0.00	29.925 
15:55	70.3	70.3	70.3	58	54.8	0	3	90	0.00	29.924 
16:00	70.1	70.1	70.1	56	53.7	1	5	112	0.00	29.922 
16:05	69.9	69.9	69.9	58	54.4	1	3	135	0.00	29.919 
16:10	69.8	69.8	69.8	59	54.8	1	2	90	0.00	29.917 
16:15	69.4	69.4	69.4	61	55.4	1	3	315	0.00	29.918 
16:20	68.9	68.9	68.9	62	55.3	1	6	248	0.00	29.924 
16:25	68.1	68.1	68.1	64	55.5	1	4	270	0.00	29.924 
16:30	67.8	67.8	67.8	65	55.6	1	3	225	0.00	29.923 
16:35	67.4	67.4	67.4	66	55.6	0	2	225	0.00	29.926 
16:40	67.3	67.3	67.3	66	55.5	1	4	112	0.00	29.926 
16:45	66.9	66.9	66.9	66	55.2	1	4	292	0.00	29.926 
16:50	66.8	66.8	66.8	66	55.1	1	3	292	0.00	29.928 
16:55	66.8	66.8	66.8	67	55.5	0	3	270	0.00	29.928 
17:00	66.9	66.9	66.9	67	55.6	0	2	270	0.00	29.928 
17:05	66.9	66.9	66.9	68	56.0	1	3	22	0.00	29.927 
17:10	66.9	66.9	66.9	68	56.0	0	2	22	0.00	29.928 
17:15	66.8	66.8	66.8	68	55.9	1	4	292	0.00	29.929 
17:20	66.6	66.6	66.6	66	54.9	1	2	292	0.00	29.930 
17:25	66.6	66.6	66.6	67	55.3	0	2	292	0.00	29.931 
17:30	66.8	66.8	66.8	67	55.5	1	3	292	0.00	29.931 
17:35	66.8	66.8	66.8	66	55.1	0	2	248	0.00	29.930 
17:40	66.9	66.9	66.9	66	55.2	0	2	112	0.00	29.931 
17:45	66.8	66.8	66.8	65	54.6	1	4	248	0.00	29.934 
17:50	66.8	66.8	66.8	65	54.6	0	2	248	0.00	29.933 
17:55	66.9	66.9	66.9	65	54.7	0	2	248	0.00	29.928 
18:00	67.1	67.1	67.1	64	54.5	0	2	225	0.00	29.926 
18:05	67.3	67.3	67.3	63	54.3	1	3	112	0.00	29.928 
18:10	67.3	67.3	67.3	64	54.7	1	3	68	0.00	29.928 
18:15	67.3	67.3	67.3	65	55.1	0	1	68	0.00	29.932 
18:20	67.1	67.1	67.1	64	54.5	1	3	90	0.00	29.937 
18:25	67.1	67.1	67.1	64	54.5	0	2	90	0.00	29.934 
18:30	67.1	67.1	67.1	65	54.9	0	3	90	0.00	29.929 
18:35	67.1	67.1	67.1	65	54.9	0	2	90	0.00	29.928 
18:40	67.1	67.1	67.1	64	54.5	0	2	90	0.00	29.927 
18:45	67.1	67.1	67.1	64	54.5	1	3	90	0.00	29.927 
18:50	67.1	67.1	67.1	63	54.1	1	3	90	0.00	29.927 
18:55	66.9	66.9	66.9	63	53.9	1	4	90	0.00	29.926 
19:00	66.9	66.9	66.9	64	54.3	0	2	112	0.00	29.927 
19:05	66.8	66.8	66.8	65	54.6	0	2	112	0.00	29.926 
19:10	66.8	66.8	66.8	65	54.6	0	2	112	0.00	29.927 
19:15	66.6	66.6	66.6	65	54.5	0	1	112	0.00	29.931 
19:20	66.6	66.6	66.6	65	54.5	0	1	112	0.00	29.937 
19:25	66.4	66.4	66.4	66	54.7	0	2	112	0.00	29.938 
19:30	66.3	66.3	66.3	66	54.6	0	1	112	0.00	29.933 
19:35	66.3	66.3	66.3	67	55.0	1	2	112	0.00	29.928 
19:40	66.1	66.1	66.1	67	54.8	1	4	90	0.00	29.928 
19:45	66.0	66.0	66.0	67	54.7	0	2	90	0.00	29.933 
19:50	66.0	66.0	66.0	67	54.7	0	2	90	0.00	29.935 
19:55	65.8	65.8	65.8	67	54.5	0	0	---	0.00	29.936 
20:00	65.8	65.8	65.8	67	54.5	0	2	90	0.00	29.937 
20:05	65.6	65.6	65.6	67	54.3	0	2	90	0.00	29.938 
20:10	65.6	65.6	65.6	68	54.7	0	1	90	0.00	29.937 
20:15	65.6	65.6	65.6	68	54.7	0	1	90	0.00	29.935 
20:20	65.6	65.6	65.6	68	54.7	0	0	---	0.00	29.931 
20:25	65.5	65.5	65.5	69	55.1	0	1	90	0.00	29.930 
20:30	65.3	65.3	65.3	69	54.9	0	1	90	0.00	29.931 
20:35	65.2	65.2	65.2	70	55.2	0	0	---	0.00	29.934 
20:40	65.0	65.0	65.0	70	55.0	0	1	90	0.00	29.934 
20:45	64.8	64.8	64.8	71	55.2	0	1	90	0.00	29.934 
20:50	64.7	64.7	64.7	71	55.1	0	1	90	0.00	29.937 
20:55	64.7	64.7	64.7	71	55.1	0	1	90	0.00	29.936 
21:00	64.5	64.5	64.5	71	54.9	0	0	---	0.00	29.939 
21:05	64.5	64.5	64.5	72	55.3	0	0	---	0.00	29.939 
21:10	64.3	64.3	64.3	72	55.1	0	0	---	0.00	29.940 
21:15	64.3	64.3	64.3	73	55.5	0	0	---	0.00	29.938 
21:20	64.2	64.2	64.2	73	55.4	0	0	---	0.00	29.938 
21:25	64.0	64.0	64.0	74	55.5	0	0	---	0.00	29.939 
21:30	63.7	63.7	63.7	74	55.3	0	0	---	0.00	29.940 
21:35	63.5	63.5	63.5	74	55.1	0	1	90	0.00	29.938 
21:40	63.5	63.5	63.5	74	55.1	0	1	90	0.00	29.938 
21:45	63.4	63.4	63.4	75	55.3	0	0	---	0.00	29.938 
21:50	63.2	63.2	63.2	76	55.5	0	0	---	0.00	29.939 
21:55	63.1	63.1	63.1	76	55.4	0	0	---	0.00	29.940 
22:00	62.9	62.9	62.9	76	55.2	0	0	---	0.00	29.941 
22:05	62.7	62.7	62.7	77	55.4	0	1	90	0.00	29.938 
22:10	62.7	62.7	62.7	77	55.4	0	1	90	0.00	29.939 
22:15	62.9	62.9	62.9	77	55.6	0	1	90	0.00	29.939 
22:20	63.1	63.1	63.1	77	55.8	0	1	90	0.00	29.939 
22:25	63.2	63.2	63.2	77	55.9	0	1	90	0.00	29.940 
22:30	63.4	63.4	63.4	77	56.1	0	1	90	0.00	29.940 
22:35	63.4	63.4	63.4	77	56.1	0	1	90	0.00	29.939 
22:40	63.5	63.5	63.5	76	55.8	0	2	90	0.00	29.937 
22:45	63.5	63.5	63.5	76	55.8	0	1	90	0.00	29.937 
22:50	63.7	63.7	63.7	76	56.0	0	0	---	0.00	29.939 
22:55	63.7	63.7	63.7	76	56.0	0	0	---	0.00	29.938 
23:00	63.7	63.7	63.7	77	56.3	0	1	90	0.00	29.938 
23:05	63.7	63.7	63.7	77	56.3	0	1	90	0.00	29.936 
23:10	63.7	63.7	63.7	77	56.3	0	2	90	0.00	29.935 
23:15	63.7	63.7	63.7	77	56.3	0	2	90	0.00	29.935 
23:20	63.7	63.7	63.7	77	56.3	0	1	90	0.00	29.935 
23:25	63.7	63.7	63.7	77	56.3	0	2	90	0.00	29.934 
23:30	63.7	63.7	63.7	76	56.0	0	2	90	0.00	29.933 
23:35	63.9	63.9	63.9	76	56.2	0	2	90	0.00	29.930 
23:40	63.9	63.9	63.9	76	56.2	1	3	112	0.00	29.932 
23:45	64.0	64.0	64.0	75	55.9	1	2	112	0.00	29.933 
23:50	64.2	64.2	64.2	75	56.1	1	3	90	0.00	29.932 
23:55	64.3	64.3	64.3	74	55.8	1	2	90	0.00	29.934 

CoCoRaHS
IN-AL-39
A2 Web Hosting
Creative Commons License
GoDaddy
Look for:

loaded 2017-12-13 15:49:51 • last modified 2010-11-18 10:43:29
Privacy PolicyDisclaimer
• wx.awcolley.com is powered by PmWiki v.2002016 •
• all content (unless otherwise noted) © 2017 A W Colley